createdAt,value
2016-12-18T10:27:56.610Z,21.41
2016-12-18T10:28:28.127Z,21.38
2016-12-18T10:28:58.701Z,21.41
2016-12-18T10:29:29.287Z,21.42
2016-12-18T10:29:59.922Z,21.41
2016-12-18T10:30:30.488Z,21.41
2016-12-18T10:31:01.035Z,21.36
2016-12-18T10:31:31.609Z,21.42
2016-12-18T10:32:02.178Z,21.39
2016-12-18T10:32:32.743Z,21.38
2016-12-18T10:33:03.317Z,21.39
2016-12-18T10:33:33.877Z,21.39
2016-12-18T10:34:04.488Z,21.35
2016-12-18T10:34:35.061Z,21.29
2016-12-18T10:35:05.707Z,21.35
2016-12-18T10:35:36.263Z,21.36
2016-12-18T10:36:06.853Z,21.38
2016-12-18T10:36:37.418Z,21.36
2016-12-18T10:37:08.004Z,21.3
2016-12-18T10:37:38.574Z,21.35
2016-12-18T10:38:09.158Z,21.29
2016-12-18T10:38:39.750Z,21.36
2016-12-18T10:39:10.313Z,21.36
2016-12-18T10:39:40.907Z,21.35
2016-12-18T10:40:11.474Z,21.32
2016-12-18T10:40:42.059Z,21.29
2016-12-18T10:41:12.638Z,21.35
2016-12-18T10:41:43.200Z,21.29
2016-12-18T10:42:13.754Z,21.3
2016-12-18T10:42:44.379Z,21.35
2016-12-18T10:43:14.939Z,21.32
2016-12-18T10:43:45.513Z,21.29
2016-12-18T10:44:16.080Z,21.36
2016-12-18T10:44:46.617Z,21.29
2016-12-18T10:45:17.260Z,21.32
2016-12-18T10:45:47.817Z,21.27
2016-12-18T10:46:18.366Z,21.29
2016-12-18T10:46:48.959Z,21.27
2016-12-18T10:47:19.521Z,21.3
2016-12-18T10:47:50.113Z,21.32
2016-12-18T10:48:20.765Z,21.27
2016-12-18T10:48:51.349Z,21.27
2016-12-18T10:49:21.948Z,21.3
2016-12-18T10:49:52.525Z,21.26
2016-12-18T10:50:23.092Z,21.26
2016-12-18T10:50:53.651Z,21.34
2016-12-18T10:51:24.235Z,21.26
2016-12-18T10:51:54.810Z,21.36
2016-12-18T10:52:25.370Z,21.3
2016-12-18T10:52:56.013Z,21.34
2016-12-18T10:53:26.574Z,21.34
2016-12-18T10:53:57.146Z,21.3
2016-12-18T10:54:27.733Z,21.34
2016-12-18T10:54:58.296Z,21.36
2016-12-18T10:55:28.928Z,21.32
2016-12-18T10:55:59.519Z,21.32
2016-12-18T10:56:30.098Z,21.35
2016-12-18T10:57:00.680Z,21.32
2016-12-18T10:57:31.286Z,21.35
2016-12-18T10:58:01.869Z,21.27
2016-12-18T10:58:32.447Z,21.32
2016-12-18T10:59:03.026Z,21.38
2016-12-18T10:59:33.603Z,21.36
2016-12-18T11:00:04.161Z,21.36
2016-12-18T11:00:34.734Z,21.36
2016-12-18T11:01:05.312Z,21.38
2016-12-18T11:01:35.903Z,21.36
2016-12-18T11:02:06.479Z,21.34
2016-12-18T11:02:37.049Z,21.32
2016-12-18T11:03:07.616Z,21.36
2016-12-18T11:03:38.276Z,21.35
2016-12-18T11:04:08.849Z,21.32
2016-12-18T11:04:39.403Z,21.35
2016-12-18T11:05:09.981Z,21.3
2016-12-18T11:05:40.541Z,21.38
2016-12-18T11:06:11.094Z,21.35
2016-12-18T11:06:41.651Z,21.34
2016-12-18T11:07:12.223Z,21.38
2016-12-18T11:07:42.792Z,21.36
2016-12-18T11:08:13.367Z,21.35
2016-12-18T11:17:42.770Z,21.23
2016-12-18T11:18:13.368Z,21.23
2016-12-18T11:18:43.956Z,21.23
2016-12-18T11:19:14.486Z,21.2
2016-12-18T11:19:45.215Z,21.24
2016-12-18T11:20:15.728Z,21.23
2016-12-18T11:20:46.241Z,21.23
2016-12-18T11:21:16.812Z,21.19
2016-12-18T11:21:47.377Z,21.17
2016-12-18T11:22:17.935Z,21.09
2016-12-18T11:22:48.498Z,21.09
2016-12-18T11:23:19.066Z,21.09
2016-12-18T11:23:49.671Z,21.09
2016-12-18T11:24:20.234Z,21.16
2016-12-18T11:24:50.811Z,21.14
2016-12-18T11:25:21.375Z,21.13
2016-12-18T11:25:51.987Z,21.09
2016-12-18T11:26:22.537Z,21.11
2016-12-18T11:26:53.136Z,21.06
2016-12-18T11:27:23.696Z,21.09
2016-12-18T11:27:54.312Z,21.13
2016-12-18T11:28:24.920Z,21.06
2016-12-18T11:28:55.503Z,21.11
2016-12-18T11:29:26.069Z,21.08
2016-12-18T11:29:56.625Z,21.14
2016-12-18T11:30:27.188Z,21.14
2016-12-18T11:30:57.809Z,21.06
2016-12-18T11:31:28.392Z,21.11
2016-12-18T11:31:58.972Z,21.08
2016-12-18T11:32:29.515Z,21.06
2016-12-18T11:33:00.195Z,21.13
2016-12-18T11:33:30.763Z,21.09
2016-12-18T11:34:01.335Z,21.16
2016-12-18T11:34:31.907Z,21.06
2016-12-18T11:35:02.480Z,21.14
2016-12-18T11:35:33.059Z,21.04
2016-12-18T11:36:03.631Z,21.06
2016-12-18T11:36:34.211Z,21.11
2016-12-18T11:37:04.777Z,21.08
2016-12-18T11:37:35.356Z,21.11
2016-12-18T11:38:05.949Z,21.11
2016-12-18T11:38:36.531Z,21.17
2016-12-18T11:39:07.144Z,21.11
2016-12-18T11:39:37.722Z,21.11
2016-12-18T11:40:08.276Z,21.08
2016-12-18T11:40:38.839Z,21.09
2016-12-18T11:41:09.408Z,21.08
2016-12-18T11:41:39.965Z,21.04
2016-12-18T11:42:10.543Z,21.06
2016-12-18T11:42:41.146Z,21.06
2016-12-18T11:43:11.737Z,21.06
2016-12-18T11:43:42.338Z,21.05
2016-12-18T11:44:12.923Z,21.04
2016-12-18T11:44:43.506Z,21.02
2016-12-18T11:45:14.081Z,21.08
2016-12-18T11:45:44.676Z,21.05
2016-12-18T11:46:15.234Z,21.02
2016-12-18T11:46:45.839Z,21.06
2016-12-18T11:47:16.410Z,21.05
2016-12-18T11:47:46.976Z,21.08
2016-12-18T11:48:17.576Z,21.14
2016-12-18T11:48:48.170Z,21.16
2016-12-18T11:49:18.755Z,21.14
2016-12-18T11:49:49.324Z,21.16
2016-12-18T11:50:19.900Z,21.11
2016-12-18T11:50:50.484Z,21.08
2016-12-18T11:51:21.061Z,21.06
2016-12-18T11:51:51.623Z,21.08
2016-12-18T11:52:22.218Z,21.08
2016-12-18T11:52:52.782Z,21.17
2016-12-18T11:53:23.375Z,21.09
2016-12-18T11:53:53.930Z,21.08
2016-12-18T11:54:24.538Z,21.13
2016-12-18T11:54:55.114Z,21.01
2016-12-18T11:55:25.673Z,20.98
2016-12-18T11:55:56.240Z,21.04
2016-12-18T11:56:26.841Z,20.99
2016-12-18T11:56:57.407Z,21.01
2016-12-18T11:57:28.026Z,21.08
2016-12-18T11:57:58.643Z,21.02
2016-12-18T11:58:29.211Z,21.08
2016-12-18T11:58:59.780Z,21.11
2016-12-18T11:59:30.346Z,21.05
2016-12-18T12:00:00.916Z,21.06
2016-12-18T12:00:31.472Z,21.05
2016-12-18T12:01:02.055Z,21.09
2016-12-18T12:01:32.620Z,21.04
2016-12-18T12:02:03.206Z,21.16
2016-12-18T12:02:33.786Z,21.06
2016-12-18T12:03:04.351Z,21.11
2016-12-18T12:03:34.904Z,21.02
2016-12-18T12:04:05.482Z,21.05
2016-12-18T12:04:36.070Z,21.11
2016-12-18T12:05:06.686Z,21.08
2016-12-18T12:05:37.284Z,21.11
2016-12-18T12:06:07.884Z,21.11
2016-12-18T12:06:38.478Z,21.05
2016-12-18T12:07:09.087Z,21.09
2016-12-18T12:07:39.688Z,21.06
2016-12-18T12:08:10.256Z,21.11
2016-12-18T12:08:40.840Z,21.14
2016-12-18T12:09:11.421Z,21.13
2016-12-18T12:09:41.969Z,21.13
2016-12-18T12:10:12.557Z,21.13
2016-12-18T12:10:43.121Z,21.04
2016-12-18T12:11:13.699Z,21.14
2016-12-18T12:11:44.280Z,21.11
2016-12-18T12:12:14.876Z,21.17
2016-12-18T12:12:45.461Z,21.11
2016-12-18T12:13:16.033Z,21.17
2016-12-18T12:13:46.582Z,21.17
2016-12-18T12:14:17.154Z,21.14
2016-12-18T12:14:47.716Z,21.14
2016-12-18T12:15:18.332Z,21.2
2016-12-18T12:15:48.886Z,21.09
2016-12-18T12:16:19.469Z,21.06
2016-12-18T12:16:50.046Z,21.14
2016-12-18T12:17:20.600Z,21.16
2016-12-18T12:17:51.174Z,21.09
2016-12-18T12:18:21.764Z,21.06
2016-12-18T12:18:52.346Z,21.11
2016-12-18T12:19:22.908Z,21.06
2016-12-18T12:19:53.481Z,21.13
2016-12-18T12:20:24.055Z,21.14
2016-12-18T12:20:54.648Z,21.09
2016-12-18T12:21:25.245Z,21.09
2016-12-18T12:21:55.840Z,21.13
2016-12-18T12:22:26.415Z,21.13
2016-12-18T12:22:57.035Z,21.13
2016-12-18T12:23:27.598Z,21.14
2016-12-18T12:23:58.164Z,21.14
2016-12-18T12:24:28.778Z,21.06
2016-12-18T12:24:59.359Z,21.14
2016-12-18T12:25:29.969Z,21.14
2016-12-18T12:26:00.544Z,21.17
2016-12-18T12:26:31.108Z,21.08
2016-12-18T12:27:01.673Z,21.14
2016-12-18T12:27:32.245Z,21.14
2016-12-18T12:28:02.832Z,21.13
2016-12-18T12:28:33.435Z,21.14
2016-12-18T12:29:04.018Z,21.06
2016-12-18T12:29:34.583Z,21.05
2016-12-18T12:30:05.154Z,21.14
2016-12-18T12:30:35.725Z,21.09
2016-12-18T12:31:06.325Z,21.16
2016-12-18T12:31:36.892Z,21.08
2016-12-18T12:32:07.495Z,21.17
2016-12-18T12:32:38.131Z,21.11
2016-12-18T12:33:08.725Z,21.16
2016-12-18T12:33:39.298Z,21.08
2016-12-18T12:34:09.873Z,21.11
2016-12-18T12:34:40.460Z,21.09
2016-12-18T12:35:11.165Z,21.05
2016-12-18T12:35:41.771Z,21.14
2016-12-18T12:36:12.384Z,21.06
2016-12-18T12:36:43.077Z,21.11
2016-12-18T12:37:13.649Z,21.08
2016-12-18T12:37:44.202Z,21.19
2016-12-18T12:38:14.749Z,21.11
2016-12-18T12:38:45.340Z,21.09
2016-12-18T12:39:16.045Z,21.06
2016-12-18T12:39:46.603Z,21.11
2016-12-18T12:40:17.174Z,21.17
2016-12-18T12:40:47.749Z,21.14
2016-12-18T12:41:18.335Z,21.13
2016-12-18T12:41:48.906Z,21.08
2016-12-18T13:02:05.108Z,21.42
2016-12-18T13:02:35.676Z,21.36
2016-12-18T13:03:06.238Z,21.34
2016-12-18T13:03:36.808Z,21.35
2016-12-18T13:04:07.384Z,21.36
2016-12-18T13:04:37.938Z,21.38
2016-12-18T13:05:08.511Z,21.36
2016-12-18T13:05:39.052Z,21.36
2016-12-18T13:06:09.638Z,21.38
2016-12-18T13:06:40.231Z,21.34
2016-12-18T13:07:10.834Z,21.36
2016-12-18T13:07:41.421Z,21.36
2016-12-18T13:08:12.027Z,21.39
2016-12-18T13:08:42.598Z,21.36
2016-12-18T13:09:13.164Z,21.32
2016-12-18T13:09:43.736Z,21.41
2016-12-18T13:10:14.327Z,21.42
2016-12-18T13:10:44.940Z,21.35
2016-12-18T13:11:15.496Z,21.38
2016-12-18T13:11:46.061Z,21.44
2016-12-18T13:12:17.169Z,21.41
2016-12-18T13:12:47.737Z,21.46
2016-12-18T13:13:18.339Z,21.48
2016-12-18T13:13:48.889Z,21.41
2016-12-18T13:14:19.488Z,21.46
2016-12-18T13:14:50.070Z,21.54
2016-12-18T13:15:20.658Z,21.5
2016-12-18T13:15:51.234Z,21.48
2016-12-18T13:16:21.812Z,21.51
2016-12-18T13:16:52.402Z,21.51
2016-12-18T13:17:23.012Z,21.51
2016-12-18T13:17:53.593Z,21.51
2016-12-18T13:18:24.147Z,21.54
2016-12-18T13:18:54.727Z,21.61
2016-12-18T13:19:25.304Z,21.56
2016-12-18T13:19:55.880Z,21.45
2016-12-18T13:20:26.493Z,21.66
2016-12-18T13:20:57.078Z,21.63
2016-12-18T13:21:27.737Z,21.48
2016-12-18T13:21:58.315Z,21.61
2016-12-18T13:22:28.874Z,21.63
2016-12-18T13:22:59.436Z,21.6
2016-12-18T13:23:29.998Z,21.57
2016-12-18T13:24:00.564Z,21.69
2016-12-18T13:24:31.218Z,21.59
2016-12-18T13:25:01.870Z,21.63
2016-12-18T13:25:32.443Z,21.59
2016-12-18T13:26:03.020Z,21.6
2016-12-18T13:26:33.614Z,21.56
2016-12-18T13:27:04.177Z,21.57
2016-12-18T13:27:34.826Z,21.6
2016-12-18T13:28:05.420Z,21.6
2016-12-18T13:28:35.996Z,21.54
2016-12-18T13:29:06.567Z,21.6
2016-12-18T13:29:37.124Z,21.57
2016-12-18T14:22:20.246Z,22.23
2016-12-18T14:22:50.850Z,22.41
2016-12-18T14:23:21.430Z,22.47
2016-12-18T14:23:52.053Z,22.53
2016-12-18T14:24:22.628Z,22.64
2016-12-18T14:24:53.195Z,22.67
2016-12-18T14:25:23.761Z,22.67
2016-12-18T14:25:54.374Z,22.54
2016-12-18T14:26:24.936Z,22.57
2016-12-18T14:26:55.516Z,22.59
2016-12-18T14:27:26.144Z,22.59
2016-12-18T14:27:56.700Z,22.53
2016-12-18T14:28:27.350Z,22.56
2016-12-18T14:28:57.924Z,22.56
2016-12-18T14:29:28.501Z,22.56
2016-12-18T14:29:59.100Z,22.5
2016-12-18T14:30:29.696Z,22.53
2016-12-18T14:31:00.302Z,22.53
2016-12-18T14:31:30.884Z,22.46
2016-12-18T14:32:01.478Z,22.52
2016-12-18T14:32:32.046Z,22.49
2016-12-18T14:33:02.597Z,22.47
2016-12-18T14:33:33.334Z,22.49
2016-12-18T14:34:03.978Z,22.43
2016-12-18T14:34:34.556Z,22.5
2016-12-18T14:35:05.207Z,22.52
2016-12-18T14:35:35.774Z,22.44
2016-12-18T14:36:06.359Z,22.43
2016-12-18T14:36:36.953Z,22.49
2016-12-18T14:37:07.508Z,22.43
2016-12-18T14:37:38.106Z,22.38
2016-12-18T14:38:08.686Z,22.38
2016-12-18T14:38:39.271Z,22.38
2016-12-18T14:39:09.856Z,22.35
2016-12-18T14:39:40.436Z,22.49
2016-12-18T14:40:11.004Z,22.44
2016-12-18T14:40:41.608Z,22.43
2016-12-18T14:41:12.176Z,22.38
2016-12-18T14:41:42.734Z,22.39
2016-12-18T14:42:13.315Z,22.49
2016-12-18T14:42:43.883Z,22.49
2016-12-18T14:43:14.507Z,22.47
2016-12-18T14:43:45.054Z,22.43
2016-12-18T14:44:15.649Z,22.44
2016-12-18T14:44:46.237Z,22.39
2016-12-18T14:45:16.809Z,22.47
2016-12-18T14:45:47.374Z,22.46
2016-12-18T14:46:17.934Z,22.43
2016-12-18T14:46:48.526Z,22.5
2016-12-18T14:47:19.128Z,22.53
2016-12-18T14:47:49.711Z,22.46
2016-12-18T14:48:20.320Z,22.5
2016-12-18T14:48:50.886Z,22.46
2016-12-18T14:49:21.467Z,22.47
2016-12-18T14:49:52.060Z,22.49
2016-12-18T14:50:22.642Z,22.44
2016-12-18T14:50:53.259Z,22.49
2016-12-18T14:51:23.802Z,22.41
2016-12-18T14:51:54.394Z,22.52
2016-12-18T14:52:25.012Z,22.53
2016-12-18T14:52:55.598Z,22.46
2016-12-18T14:53:26.202Z,22.52
2016-12-18T14:53:56.772Z,22.5
2016-12-18T14:54:27.345Z,22.5
2016-12-18T14:54:57.914Z,22.52
2016-12-18T14:55:28.479Z,22.52
2016-12-18T14:55:59.060Z,22.47
2016-12-18T14:56:29.630Z,22.52
2016-12-18T14:57:00.214Z,22.52
2016-12-18T14:57:30.798Z,22.46
2016-12-18T14:58:01.366Z,22.47
2016-12-18T14:58:31.925Z,22.43
2016-12-18T14:59:02.497Z,22.46
2016-12-18T14:59:33.057Z,22.46
2016-12-18T15:00:03.625Z,22.44
2016-12-18T15:00:34.207Z,22.44
2016-12-18T15:01:04.801Z,22.47
2016-12-18T15:01:35.363Z,22.43
2016-12-18T15:02:05.956Z,22.43
2016-12-18T15:02:36.510Z,22.43
2016-12-18T15:03:07.070Z,22.46
2016-12-18T15:03:37.654Z,22.43
2016-12-18T15:04:08.260Z,22.47
2016-12-18T15:04:38.806Z,22.46
2016-12-18T15:05:09.364Z,22.47
2016-12-18T15:05:40.025Z,22.46
2016-12-18T15:06:10.617Z,22.38
2016-12-18T15:06:41.230Z,22.47
2016-12-18T15:07:11.792Z,22.39
2016-12-18T15:07:42.358Z,22.35
2016-12-18T15:08:12.926Z,22.43
2016-12-18T15:08:43.507Z,22.41
2016-12-18T15:09:14.123Z,22.35
2016-12-18T15:09:44.683Z,22.35
2016-12-18T15:10:15.238Z,22.35
2016-12-18T15:10:45.841Z,22.44
2016-12-18T15:11:16.395Z,22.41
2016-12-18T15:11:46.976Z,22.43
2016-12-18T15:12:17.547Z,22.39
2016-12-18T15:12:48.156Z,22.39
2016-12-18T15:13:18.735Z,22.37
2016-12-18T15:13:49.314Z,22.38
2016-12-18T15:14:19.869Z,22.46
2016-12-18T15:14:50.488Z,22.38
2016-12-18T15:15:21.086Z,22.38
2016-12-18T15:15:51.636Z,22.41
2016-12-18T15:16:22.191Z,22.35
2016-12-18T15:16:52.766Z,22.38
2016-12-18T15:17:23.364Z,22.43
2016-12-18T15:17:53.976Z,22.37
2016-12-18T15:18:24.556Z,22.41
2016-12-18T15:18:55.105Z,22.35
2016-12-18T15:19:25.666Z,22.35
2016-12-18T15:19:56.246Z,22.35
2016-12-18T15:20:26.841Z,22.39
2016-12-18T15:20:57.404Z,22.32
2016-12-18T15:21:27.958Z,22.41
2016-12-18T15:21:58.545Z,22.44
2016-12-18T15:22:29.154Z,22.38
2016-12-18T15:22:59.741Z,22.41
2016-12-18T15:23:30.314Z,22.47
2016-12-18T15:24:00.897Z,22.38
2016-12-18T15:24:31.478Z,22.41
2016-12-18T15:25:02.103Z,22.44
2016-12-18T15:26:39.846Z,22.43
2016-12-18T15:27:10.424Z,22.39
2016-12-18T15:27:41.005Z,22.39
2016-12-18T15:28:11.703Z,22.44
2016-12-18T15:28:42.366Z,22.37
2016-12-18T15:29:12.939Z,22.37
2016-12-18T15:29:43.510Z,22.38
2016-12-18T15:30:14.148Z,22.38
2016-12-18T15:30:44.733Z,22.43
2016-12-18T15:31:15.291Z,22.32
2016-12-18T15:31:45.873Z,22.38
2016-12-18T15:32:16.443Z,22.43
2016-12-18T15:32:47.045Z,22.39
2016-12-18T15:33:17.616Z,22.39
2016-12-18T15:33:48.216Z,22.46
2016-12-18T15:34:18.787Z,22.44
2016-12-18T15:34:49.385Z,22.46
2016-12-18T15:35:19.976Z,22.53
2016-12-18T15:35:50.560Z,22.44
2016-12-18T15:36:21.150Z,22.46
2016-12-18T15:36:51.736Z,22.5
2016-12-18T15:37:22.304Z,22.43
2016-12-18T15:37:52.868Z,22.39
2016-12-18T15:38:23.454Z,22.37
2016-12-18T15:38:54.045Z,22.49
2016-12-18T15:39:24.608Z,22.5
2016-12-18T15:39:55.181Z,22.46
2016-12-18T15:40:25.776Z,22.53
2016-12-18T15:40:56.396Z,22.5
2016-12-18T15:41:26.974Z,22.54
2016-12-18T15:41:57.547Z,22.56
2016-12-18T15:42:28.143Z,22.53
2016-12-18T15:42:58.716Z,22.53
2016-12-18T15:43:29.296Z,22.52
2016-12-18T15:43:59.875Z,22.5
2016-12-18T15:44:30.445Z,22.49
2016-12-18T15:45:01.025Z,22.54
2016-12-18T15:45:31.587Z,22.53
2016-12-18T15:46:02.140Z,22.53
2016-12-18T15:46:32.705Z,22.53
2016-12-18T15:47:03.263Z,22.62
2016-12-18T15:47:33.854Z,22.54
2016-12-18T15:48:04.470Z,22.6
2016-12-18T15:48:35.084Z,22.62
2016-12-18T15:49:05.656Z,22.62
2016-12-18T15:49:36.228Z,22.56
2016-12-18T15:50:06.788Z,22.57
2016-12-18T15:50:37.359Z,22.65
2016-12-18T15:51:07.925Z,22.62
2016-12-18T15:51:38.546Z,22.59
2016-12-18T15:52:09.120Z,22.59
2016-12-18T15:52:39.694Z,22.56
2016-12-18T15:53:10.265Z,22.57
2016-12-18T15:53:40.841Z,22.59
2016-12-18T15:54:11.420Z,22.65
2016-12-18T15:54:42.029Z,22.64
2016-12-18T15:55:12.620Z,22.64
2016-12-18T15:55:43.151Z,22.67
2016-12-18T15:56:13.710Z,22.59
2016-12-18T15:56:44.277Z,22.59
2016-12-18T15:57:14.856Z,22.56
2016-12-18T15:57:45.421Z,22.59
2016-12-18T15:58:16.037Z,22.57
2016-12-18T15:58:46.614Z,22.57
2016-12-18T15:59:17.171Z,22.62
2016-12-18T15:59:47.768Z,22.59
2016-12-18T16:00:18.375Z,22.6
2016-12-18T16:00:48.975Z,22.64
2016-12-18T16:01:19.586Z,22.54
2016-12-18T16:01:50.189Z,22.52
2016-12-18T16:02:20.776Z,22.56
2016-12-18T16:02:51.341Z,22.62
2016-12-18T16:03:21.908Z,22.54
2016-12-18T16:03:52.509Z,22.57
2016-12-18T16:04:23.062Z,22.59
2016-12-18T16:04:53.658Z,22.62
2016-12-18T16:05:24.226Z,22.56
2016-12-18T16:05:54.780Z,22.57
2016-12-18T16:06:25.334Z,22.53
2016-12-18T16:06:55.916Z,22.54
2016-12-18T16:07:26.506Z,22.56
2016-12-18T16:07:57.089Z,22.53
2016-12-18T16:08:27.657Z,22.5
2016-12-18T16:08:58.220Z,22.54
2016-12-18T16:09:28.801Z,22.52
2016-12-18T16:09:59.374Z,22.52
2016-12-18T16:10:29.972Z,22.59
2016-12-18T16:11:00.541Z,22.6
2016-12-18T16:11:31.128Z,22.52
2016-12-18T16:12:01.684Z,22.5
2016-12-18T16:12:32.395Z,22.56
2016-12-18T16:13:03.006Z,22.52
2016-12-18T16:13:33.584Z,22.52
2016-12-18T16:14:04.152Z,22.53
2016-12-18T16:14:34.725Z,22.53
2016-12-18T16:15:05.290Z,22.56
2016-12-18T16:15:35.875Z,22.49
2016-12-18T16:16:06.432Z,22.54
2016-12-18T16:16:37.029Z,22.44
2016-12-18T16:17:07.587Z,22.52
2016-12-18T16:17:38.179Z,22.53
2016-12-18T16:18:08.748Z,22.52
2016-12-18T16:18:39.316Z,22.44
2016-12-18T16:19:09.892Z,22.47
2016-12-18T16:19:40.474Z,22.52
2016-12-18T16:20:11.050Z,22.49
2016-12-18T16:20:41.621Z,22.53
2016-12-18T16:21:12.210Z,22.52
2016-12-18T16:21:42.776Z,22.53
2016-12-18T16:22:13.358Z,22.46
2016-12-18T16:22:43.919Z,22.49
2016-12-18T16:23:14.546Z,22.49
2016-12-18T16:23:45.140Z,22.44
2016-12-18T16:24:15.738Z,22.53
2016-12-18T16:24:46.325Z,22.47
2016-12-18T16:25:16.888Z,22.52
2016-12-18T16:25:47.483Z,22.46
2016-12-18T16:26:18.076Z,22.46
2016-12-18T16:26:48.629Z,22.44
2016-12-18T16:27:19.205Z,22.44
2016-12-18T16:27:49.775Z,22.46
2016-12-18T16:28:20.345Z,22.44
2016-12-18T16:28:50.938Z,22.47
2016-12-18T16:29:21.503Z,22.47
2016-12-18T16:29:52.057Z,22.49
2016-12-18T16:30:22.617Z,22.52
2016-12-18T16:30:53.276Z,22.49
2016-12-18T16:31:23.826Z,22.44
2016-12-18T16:31:54.410Z,22.5
2016-12-18T16:32:24.981Z,22.43
2016-12-18T16:32:55.541Z,22.46
2016-12-18T16:33:26.144Z,22.41
2016-12-18T16:33:56.745Z,22.43
2016-12-18T16:34:27.314Z,22.49
2016-12-18T16:34:57.890Z,22.44
2016-12-18T16:35:28.488Z,22.46
2016-12-18T16:35:59.090Z,22.44
2016-12-18T16:36:29.662Z,22.43
2016-12-18T16:37:00.213Z,22.52
2016-12-18T16:37:30.777Z,22.5
2016-12-18T16:38:01.332Z,22.47
2016-12-18T16:38:31.893Z,22.43
2016-12-18T16:39:02.527Z,22.53
2016-12-18T16:39:33.080Z,22.57
2016-12-18T16:40:03.659Z,22.5
2016-12-18T16:40:34.231Z,22.56
2016-12-18T16:41:04.802Z,22.52
2016-12-18T16:41:35.382Z,22.52
2016-12-18T16:42:05.975Z,22.44
2016-12-18T16:42:36.547Z,22.52
2016-12-18T16:43:07.143Z,22.57
2016-12-18T16:43:37.741Z,22.57
2016-12-18T16:44:08.326Z,22.56
2016-12-18T16:44:38.881Z,22.56
2016-12-18T16:45:09.455Z,22.52
2016-12-18T16:45:40.022Z,22.6
2016-12-18T16:46:10.587Z,22.5
2016-12-18T16:46:41.267Z,22.57
2016-12-18T16:47:11.820Z,22.6
2016-12-18T16:47:42.380Z,22.59
2016-12-18T16:48:12.991Z,22.52
2016-12-18T16:48:43.565Z,22.56
2016-12-18T16:49:14.106Z,22.62
2016-12-18T16:49:44.677Z,22.54
2016-12-18T16:50:15.247Z,22.6
2016-12-18T16:50:45.850Z,22.54
2016-12-18T16:51:16.408Z,22.56
2016-12-18T16:51:46.996Z,22.53
2016-12-18T16:52:17.609Z,22.54
2016-12-18T16:52:48.205Z,22.49
2016-12-18T16:53:18.796Z,22.57
2016-12-18T16:53:49.406Z,22.57
2016-12-18T16:54:19.988Z,22.62
2016-12-18T16:54:50.556Z,22.56
2016-12-18T16:55:21.165Z,22.56
2016-12-18T16:55:51.698Z,22.56
2016-12-18T16:56:22.294Z,22.53
2016-12-18T16:56:52.875Z,22.67
2016-12-18T16:57:23.455Z,22.56
2016-12-18T16:57:54.027Z,22.53
2016-12-18T16:58:24.592Z,22.62
2016-12-18T16:58:55.161Z,22.64
2016-12-18T16:59:25.768Z,22.64
2016-12-18T16:59:56.372Z,22.56
2016-12-18T17:00:27.648Z,22.49
2016-12-18T17:00:58.262Z,22.59
2016-12-18T17:01:28.844Z,22.6
2016-12-18T17:01:59.406Z,22.64
2016-12-18T17:02:30.026Z,22.67
2016-12-18T17:03:00.585Z,22.6
2016-12-18T17:03:31.155Z,22.62
2016-12-18T17:04:01.730Z,22.64
2016-12-18T17:04:32.346Z,22.57
2016-12-18T17:05:02.911Z,22.57
2016-12-18T17:05:33.503Z,22.64
2016-12-18T17:06:04.078Z,22.64
2016-12-18T17:06:34.677Z,22.65
2016-12-18T17:07:05.273Z,22.62
2016-12-18T17:07:35.853Z,22.54
2016-12-18T17:08:06.426Z,22.65
2016-12-18T17:08:37.017Z,22.65
2016-12-18T17:09:07.749Z,22.6
2016-12-18T17:09:38.352Z,22.56
2016-12-18T17:10:08.934Z,22.6
2016-12-18T17:10:39.541Z,22.64
2016-12-18T17:11:10.205Z,22.6
2016-12-18T17:11:40.802Z,22.65
2016-12-18T17:12:11.368Z,22.59
2016-12-18T17:12:41.952Z,22.57
2016-12-18T17:13:12.595Z,22.62
2016-12-18T17:13:43.171Z,22.6
2016-12-18T17:14:13.763Z,22.64
2016-12-18T17:14:44.360Z,22.62
2016-12-18T17:15:14.933Z,22.64
2016-12-18T17:15:45.576Z,22.59
2016-12-18T17:16:16.148Z,22.59
2016-12-18T17:16:46.731Z,22.64
2016-12-18T17:17:17.341Z,22.56
2016-12-18T17:17:47.967Z,22.53
2016-12-18T17:18:18.546Z,22.54
2016-12-18T17:18:49.246Z,22.62
2016-12-18T17:19:19.866Z,22.64
2016-12-18T17:19:50.428Z,22.59
2016-12-18T17:20:21.000Z,22.62
2016-12-18T17:20:51.573Z,22.59
2016-12-18T17:21:22.221Z,22.62
2016-12-18T17:21:52.787Z,22.57
2016-12-18T17:22:23.360Z,22.54
2016-12-18T17:22:53.965Z,22.57
2016-12-18T17:23:24.591Z,22.64
2016-12-18T17:23:55.172Z,22.53
2016-12-18T17:24:25.725Z,22.54
2016-12-18T17:24:56.324Z,22.56
2016-12-18T17:25:26.905Z,22.52
2016-12-18T17:25:57.505Z,22.5
2016-12-18T17:26:28.111Z,22.53
2016-12-18T17:26:58.694Z,22.54
2016-12-18T17:27:29.264Z,22.52
2016-12-18T17:27:59.847Z,22.5
2016-12-18T17:28:30.436Z,22.49
2016-12-18T17:29:01.017Z,22.54
2016-12-18T17:29:31.591Z,22.49
2016-12-18T17:30:02.182Z,22.5
2016-12-18T17:30:32.757Z,22.54
2016-12-18T17:31:03.354Z,22.46
2016-12-18T17:31:33.941Z,22.49
2016-12-18T17:32:04.511Z,22.5
2016-12-18T17:32:35.111Z,22.52
2016-12-18T17:33:05.665Z,22.49
2016-12-18T17:33:36.246Z,22.52
2016-12-18T17:34:06.828Z,22.44
2016-12-18T17:34:37.364Z,22.46
2016-12-18T17:35:07.932Z,22.47
2016-12-18T17:35:38.559Z,22.46
2016-12-18T17:36:09.133Z,22.54
2016-12-18T17:36:39.708Z,22.47
2016-12-18T17:37:10.258Z,22.44
2016-12-18T17:37:40.833Z,22.43
2016-12-18T17:38:11.413Z,22.49
2016-12-18T17:38:41.976Z,22.47
2016-12-18T17:39:12.558Z,22.52
2016-12-18T17:39:43.156Z,22.54
2016-12-18T17:40:13.728Z,22.54
2016-12-18T17:40:44.372Z,22.52
2016-12-18T17:41:14.941Z,22.52
2016-12-18T17:41:45.510Z,22.54
2016-12-18T17:42:16.090Z,22.53
2016-12-18T17:42:46.668Z,22.53
2016-12-18T17:43:17.238Z,22.52
2016-12-18T17:43:47.810Z,22.56
2016-12-18T17:44:18.396Z,22.52
2016-12-18T17:44:48.959Z,22.6
2016-12-18T17:45:19.560Z,22.57
2016-12-18T17:45:50.191Z,22.6
2016-12-18T17:46:20.786Z,22.57
2016-12-18T17:46:51.362Z,22.56
2016-12-18T17:47:21.979Z,22.52
2016-12-18T17:47:52.606Z,22.53
2016-12-18T17:48:23.203Z,22.5
2016-12-18T17:48:53.793Z,22.49
2016-12-18T17:49:24.431Z,22.57
2016-12-18T17:49:55.046Z,22.49
2016-12-18T17:50:25.636Z,22.53
2016-12-18T17:50:56.230Z,22.54
2016-12-18T17:51:26.879Z,22.53
2016-12-18T17:51:57.464Z,22.47
2016-12-18T17:52:28.097Z,22.54
2016-12-18T17:52:58.669Z,22.52
2016-12-18T17:53:29.255Z,22.52
2016-12-18T17:53:59.832Z,22.52
2016-12-18T17:54:30.418Z,22.46
2016-12-18T17:55:00.987Z,22.5
2016-12-18T17:55:31.591Z,22.54
2016-12-18T17:56:02.156Z,22.52
2016-12-18T17:56:32.721Z,22.46
2016-12-18T17:57:03.355Z,22.47
2016-12-18T17:57:33.942Z,22.54
2016-12-18T17:58:04.517Z,22.53
2016-12-18T17:58:35.101Z,22.49
2016-12-18T17:59:05.684Z,22.44
2016-12-18T17:59:36.274Z,22.53
2016-12-18T18:00:06.839Z,22.49
2016-12-18T18:00:37.424Z,22.46
2016-12-18T18:01:08.025Z,22.53
2016-12-18T18:01:38.613Z,22.52
2016-12-18T18:02:09.189Z,22.46
2016-12-18T18:02:39.777Z,22.52
2016-12-18T18:03:10.365Z,22.53
2016-12-18T18:03:40.982Z,22.5
2016-12-18T18:04:11.607Z,22.44
2016-12-18T18:04:42.327Z,22.5
2016-12-18T18:05:12.907Z,22.49
2016-12-18T18:05:43.532Z,22.49
2016-12-18T18:06:14.138Z,22.47
2016-12-18T18:06:44.733Z,22.47
2016-12-18T18:07:15.348Z,22.49
2016-12-18T18:07:45.927Z,22.49
2016-12-18T18:08:16.507Z,22.49
2016-12-18T18:08:47.106Z,22.56
2016-12-18T18:09:17.753Z,22.44
2016-12-18T18:09:48.333Z,22.53
2016-12-18T18:10:19.050Z,22.52
2016-12-18T18:10:49.611Z,22.5
2016-12-18T18:11:20.268Z,22.5
2016-12-18T18:11:50.863Z,22.52
2016-12-18T18:12:21.431Z,22.52
2016-12-18T18:12:52.028Z,22.52
2016-12-18T18:13:22.603Z,22.52
2016-12-18T18:13:53.168Z,22.49
2016-12-18T18:14:23.746Z,22.56
2016-12-18T18:14:54.314Z,22.56
2016-12-18T18:15:24.961Z,22.46
2016-12-18T18:15:55.535Z,22.53
2016-12-18T18:16:26.126Z,22.52
2016-12-18T18:16:56.710Z,22.56
2016-12-18T18:17:27.260Z,22.49
2016-12-18T18:17:57.850Z,22.44
2016-12-18T18:18:28.440Z,22.56
2016-12-18T18:18:59.017Z,22.53
2016-12-18T18:19:29.584Z,22.47
2016-12-18T18:20:00.155Z,22.53
2016-12-18T18:20:30.719Z,22.47
2016-12-18T18:21:01.301Z,22.53
2016-12-18T18:21:31.877Z,22.54
2016-12-18T18:22:02.489Z,22.54
2016-12-18T18:22:33.116Z,22.54
2016-12-18T18:23:03.700Z,22.56
2016-12-18T18:23:34.289Z,22.44
2016-12-18T18:24:04.852Z,22.49
2016-12-18T18:24:35.451Z,22.52